createdAt,value
2022-07-29T00:00:00.008Z,21.02
2022-07-29T00:05:02.385Z,20.87
2022-07-29T00:10:04.962Z,21.00
2022-07-29T00:15:07.174Z,20.86
2022-07-29T00:20:09.403Z,20.91
2022-07-29T00:25:13.681Z,20.78
2022-07-29T00:30:15.580Z,20.85
2022-07-29T00:35:35.797Z,20.84
2022-07-29T00:40:37.309Z,20.81
2022-07-29T00:45:45.636Z,20.74
2022-07-29T00:50:47.327Z,20.68
2022-07-29T00:55:48.823Z,20.73
2022-07-29T01:00:50.824Z,20.71
2022-07-29T01:05:54.227Z,20.64
2022-07-29T01:10:56.292Z,20.70
2022-07-29T01:16:04.739Z,20.70
2022-07-29T01:21:42.352Z,20.66
2022-07-29T01:26:53.186Z,20.66
2022-07-29T01:32:09.959Z,20.68
2022-07-29T01:37:45.295Z,20.61
2022-07-29T01:42:52.437Z,20.63
2022-07-29T01:47:53.844Z,20.79
2022-07-29T01:52:59.339Z,20.40
2022-07-29T01:58:01.973Z,20.40
2022-07-29T02:03:08.341Z,20.55
2022-07-29T02:08:11.863Z,20.65
2022-07-29T02:13:15.070Z,20.44
2022-07-29T02:18:19.535Z,20.35
2022-07-29T02:23:23.777Z,20.40
2022-07-29T02:28:28.873Z,20.33
2022-07-29T02:33:32.489Z,20.12
2022-07-29T02:38:52.024Z,20.02
2022-07-29T02:44:02.619Z,20.19
2022-07-29T02:49:17.691Z,20.22
2022-07-29T02:54:47.186Z,20.22
2022-07-29T02:59:52.486Z,19.92
2022-07-29T03:04:56.362Z,19.75
2022-07-29T03:10:00.789Z,19.25
2022-07-29T03:15:03.035Z,18.87
2022-07-29T03:20:05.261Z,18.69
2022-07-29T03:25:14.339Z,18.39
2022-07-29T03:30:21.591Z,18.32
2022-07-29T03:35:24.046Z,18.41
2022-07-29T03:40:32.370Z,18.24
2022-07-29T03:45:35.547Z,18.19
2022-07-29T03:50:37.379Z,18.11
2022-07-29T03:55:43.765Z,18.16
2022-07-29T04:00:45.968Z,18.08
2022-07-29T04:06:00.406Z,18.13
2022-07-29T04:11:03.791Z,18.14
2022-07-29T04:16:05.634Z,17.90
2022-07-29T04:21:07.274Z,17.81
2022-07-29T04:26:12.255Z,17.87
2022-07-29T04:31:14.394Z,17.80
2022-07-29T04:36:28.674Z,17.58
2022-07-29T04:41:32.968Z,17.47
2022-07-29T04:46:36.500Z,17.67
2022-07-29T04:51:38.742Z,17.73
2022-07-29T04:56:40.343Z,17.44
2022-07-29T05:01:41.858Z,17.39
2022-07-29T05:06:44.915Z,17.57
2022-07-29T05:11:46.769Z,17.72
2022-07-29T05:16:49.369Z,17.66
2022-07-29T05:21:51.357Z,17.53
2022-07-29T05:26:53.203Z,17.57
2022-07-29T05:31:54.771Z,17.92
2022-07-29T05:36:56.379Z,17.94
2022-07-29T05:41:57.879Z,17.81
2022-07-29T05:46:59.339Z,17.94
2022-07-29T05:52:00.855Z,18.05
2022-07-29T05:57:02.911Z,18.15
2022-07-29T06:02:05.955Z,18.20
2022-07-29T06:07:07.636Z,18.09
2022-07-29T06:12:09.422Z,18.33
2022-07-29T06:17:12.496Z,18.42
2022-07-29T06:22:16.968Z,18.34
2022-07-29T06:27:18.489Z,18.45
2022-07-29T06:32:20.211Z,18.51
2022-07-29T06:37:25.228Z,18.29
2022-07-29T06:42:28.118Z,18.28
2022-07-29T06:47:29.967Z,18.28
2022-07-29T06:52:31.561Z,18.26
2022-07-29T06:57:33.411Z,18.03
2022-07-29T07:02:35.010Z,18.15
2022-07-29T07:07:36.562Z,18.03
2022-07-29T07:12:38.112Z,17.72
2022-07-29T07:17:39.830Z,17.58
2022-07-29T07:22:41.316Z,17.67
2022-07-29T07:27:43.298Z,17.96
2022-07-29T07:32:44.961Z,18.18
2022-07-29T07:37:46.593Z,18.42
2022-07-29T07:42:49.635Z,18.57
2022-07-29T07:47:51.259Z,18.74
2022-07-29T07:52:55.389Z,18.81
2022-07-29T07:57:57.173Z,19.05
2022-07-29T08:02:58.871Z,19.34
2022-07-29T08:08:00.748Z,19.55
2022-07-29T08:13:08.914Z,19.67
2022-07-29T08:18:10.715Z,19.53
2022-07-29T08:23:12.247Z,19.51
2022-07-29T08:28:13.759Z,19.29
2022-07-29T08:33:15.424Z,19.15
2022-07-29T08:38:17.488Z,19.02
2022-07-29T08:43:19.232Z,19.05
2022-07-29T08:48:23.036Z,19.07
2022-07-29T08:53:27.921Z,19.21
2022-07-29T08:58:36.590Z,19.31
2022-07-29T09:03:40.818Z,19.56
2022-07-29T09:08:42.679Z,19.62
2022-07-29T09:13:45.399Z,19.93
2022-07-29T09:18:47.665Z,20.09
2022-07-29T09:24:09.110Z,20.39
2022-07-29T09:29:16.029Z,20.32
2022-07-29T09:34:32.780Z,20.38
2022-07-29T09:39:46.415Z,20.54
2022-07-29T09:44:50.852Z,20.90
2022-07-29T09:50:00.321Z,21.00
2022-07-29T09:55:10.226Z,21.03
2022-07-29T10:00:20.910Z,21.14
2022-07-29T10:05:24.547Z,21.17
2022-07-29T10:10:31.768Z,21.83
2022-07-29T10:15:44.681Z,21.65
2022-07-29T10:20:46.513Z,21.66
2022-07-29T10:25:48.429Z,21.76
2022-07-29T10:31:14.619Z,21.83
2022-07-29T10:36:45.153Z,22.16
2022-07-29T10:42:03.539Z,22.11
2022-07-29T10:47:05.765Z,22.36
2022-07-29T10:52:10.279Z,22.33
2022-07-29T10:57:12.643Z,22.38
2022-07-29T11:02:42.326Z,22.55
2022-07-29T11:08:20.418Z,22.40
2022-07-29T11:13:44.588Z,22.18
2022-07-29T11:19:26.767Z,22.09
2022-07-29T11:24:33.385Z,21.99
2022-07-29T11:29:41.501Z,22.00
2022-07-29T11:34:45.187Z,21.89
2022-07-29T11:39:53.686Z,22.08
2022-07-29T11:50:33.486Z,22.69
2022-07-29T11:55:50.908Z,23.09
2022-07-29T12:00:55.815Z,23.40
2022-07-29T12:05:57.701Z,23.87
2022-07-29T12:07:01.822Z,22.47
2022-07-29T12:10:59.431Z,24.23
2022-07-29T12:16:01.442Z,23.77
2022-07-29T12:21:08.500Z,23.84
2022-07-29T12:26:11.056Z,23.92
2022-07-29T12:31:43.467Z,24.23
2022-07-29T12:36:45.246Z,24.24
2022-07-29T12:41:46.837Z,24.31
2022-07-29T12:47:02.778Z,24.23
2022-07-29T12:52:25.282Z,24.39
2022-07-29T12:57:27.908Z,24.35
2022-07-29T13:02:29.610Z,24.53
2022-07-29T13:07:54.299Z,24.52
2022-07-29T13:13:10.457Z,24.34
2022-07-29T13:18:31.589Z,24.65
2022-07-29T13:23:33.056Z,24.65
2022-07-29T13:28:39.908Z,24.62
2022-07-29T13:33:41.460Z,24.50
2022-07-29T13:38:42.960Z,24.87
2022-07-29T13:43:44.699Z,24.54
2022-07-29T13:48:46.329Z,24.68
2022-07-29T13:53:47.902Z,24.94
2022-07-29T13:58:49.352Z,25.07
2022-07-29T14:03:50.955Z,25.23
2022-07-29T14:08:52.416Z,25.25
2022-07-29T14:13:53.965Z,25.40
2022-07-29T14:18:55.446Z,25.37
2022-07-29T14:23:57.239Z,25.76
2022-07-29T14:28:59.717Z,25.58
2022-07-29T14:34:02.947Z,25.73
2022-07-29T14:39:05.028Z,25.71
2022-07-29T14:44:06.526Z,25.57
2022-07-29T14:49:08.072Z,25.78
2022-07-29T14:54:11.277Z,25.99
2022-07-29T14:59:12.877Z,25.65
2022-07-29T15:04:14.365Z,25.51
2022-07-29T15:09:16.087Z,25.63
2022-07-29T15:14:17.679Z,25.87
2022-07-29T15:19:19.171Z,25.65
2022-07-29T15:24:20.826Z,25.97
2022-07-29T15:29:22.546Z,25.97
2022-07-29T15:34:24.242Z,25.72
2022-07-29T15:39:25.807Z,26.04
2022-07-29T15:44:27.415Z,26.19
2022-07-29T15:49:49.505Z,25.89
2022-07-29T15:54:51.091Z,25.85
2022-07-29T15:59:52.944Z,25.73
2022-07-29T16:04:54.420Z,25.81
2022-07-29T16:09:55.912Z,25.91
2022-07-29T16:14:57.432Z,26.04
2022-07-29T16:19:58.964Z,26.09
2022-07-29T16:25:00.506Z,26.23
2022-07-29T16:30:02.150Z,26.25
2022-07-29T16:35:05.193Z,26.09
2022-07-29T16:40:11.752Z,25.94
2022-07-29T16:45:13.677Z,25.90
2022-07-29T16:50:15.420Z,25.79
2022-07-29T16:55:17.133Z,25.72
2022-07-29T17:00:21.021Z,25.58
2022-07-29T17:05:22.727Z,25.46
2022-07-29T17:10:25.529Z,25.41
2022-07-29T17:15:29.265Z,25.37
2022-07-29T17:20:32.992Z,25.21
2022-07-29T17:25:34.472Z,25.12
2022-07-29T17:30:36.028Z,25.11
2022-07-29T17:35:56.201Z,25.00
2022-07-29T17:40:57.965Z,24.95
2022-07-29T17:45:59.701Z,24.90
2022-07-29T17:51:01.635Z,24.85
2022-07-29T17:56:04.514Z,24.72
2022-07-29T18:01:06.976Z,24.60
2022-07-29T18:06:10.431Z,24.56
2022-07-29T18:11:14.924Z,24.44
2022-07-29T18:16:16.993Z,24.50
2022-07-29T18:21:43.597Z,24.40
2022-07-29T18:26:39.966Z,24.45
2022-07-29T18:31:41.606Z,24.50
2022-07-29T18:36:43.345Z,24.48
2022-07-29T18:41:49.860Z,24.47
2022-07-29T18:46:52.563Z,24.37
2022-07-29T18:51:54.268Z,24.20
2022-07-29T18:56:55.986Z,24.31
2022-07-29T19:01:57.855Z,24.16
2022-07-29T19:07:02.701Z,24.08
2022-07-29T19:12:04.650Z,23.97
2022-07-29T19:17:06.243Z,23.83
2022-07-29T19:22:07.913Z,23.71
2022-07-29T19:27:09.394Z,23.69
2022-07-29T19:32:11.133Z,23.48
2022-07-29T19:37:12.664Z,23.53
2022-07-29T19:42:14.114Z,23.42
2022-07-29T19:47:17.462Z,23.34
2022-07-29T19:52:19.062Z,23.25
2022-07-29T19:57:20.611Z,23.18
2022-07-29T20:02:22.365Z,23.14
2022-07-29T20:07:23.934Z,23.12
2022-07-29T20:12:25.519Z,22.95
2022-07-29T20:17:28.353Z,22.96
2022-07-29T20:22:30.345Z,22.90
2022-07-29T20:27:31.846Z,22.85
2022-07-29T20:32:33.408Z,22.84
2022-07-29T20:37:34.986Z,22.75
2022-07-29T20:42:56.687Z,22.66
2022-07-29T20:47:58.371Z,22.60
2022-07-29T20:52:59.840Z,22.47
2022-07-29T20:58:01.773Z,22.46
2022-07-29T21:03:03.608Z,22.32
2022-07-29T21:08:06.391Z,22.28
2022-07-29T21:13:07.861Z,22.27
2022-07-29T21:18:26.635Z,22.27
2022-07-29T21:23:28.694Z,22.17
2022-07-29T21:28:35.656Z,22.08
2022-07-29T21:33:37.635Z,21.98
2022-07-29T21:38:39.263Z,21.96
2022-07-29T21:43:42.224Z,21.95
2022-07-29T21:48:44.701Z,21.85
2022-07-29T21:53:46.259Z,21.85
2022-07-29T21:58:47.730Z,21.73
2022-07-29T22:03:49.235Z,21.62
2022-07-29T22:08:51.677Z,21.40
2022-07-29T22:13:53.154Z,21.40
2022-07-29T22:18:54.606Z,21.23
2022-07-29T22:23:56.069Z,21.22
2022-07-29T22:28:57.670Z,21.10
2022-07-29T22:33:59.231Z,21.04
2022-07-29T22:39:00.676Z,20.80
2022-07-29T22:44:02.586Z,20.71
2022-07-29T22:49:05.247Z,20.60
2022-07-29T22:54:07.363Z,20.63
2022-07-29T22:59:08.823Z,20.68
2022-07-29T23:04:10.411Z,20.53
2022-07-29T23:09:16.272Z,20.60
2022-07-29T23:14:17.715Z,20.75
2022-07-29T23:19:19.181Z,20.49
2022-07-29T23:24:20.683Z,20.58
2022-07-29T23:29:22.227Z,20.72
2022-07-29T23:34:23.703Z,20.53
2022-07-29T23:39:25.143Z,20.50
2022-07-29T23:44:26.673Z,20.30
2022-07-29T23:49:28.234Z,20.15
2022-07-29T23:54:29.756Z,20.11
2022-07-29T23:59:31.194Z,20.22
